SCSH weather

El Budi Airport
Teodoro Schmidt, Araucanía Region, Chile

Public forecast

Using degrees Celsius for public forecast. Weather courtesy of forecast.io.

METAR (pilot weather report)

Closest report is La Araucanía Airport, 25.6 nm (47.3 km) ENE. Retrieved 2019/03/26 20:00 UTC (29 minutes ago):

SCQP 262000Z 10009KT 070V130 CAVOK 31/08 Q1009

TAF (pilot weather forecast)

Closest forecast is La Araucanía Airport, 25.6 nm (47.3 km) ENE. Retrieved 2019/03/26 18:00 UTC (2 hours ago):

TAF SCQP 261601Z 2618/2718 14010KT CAVOK TX29/2619Z TN07/2711Z BECMG 2702/2704 VRB03KT